createdAt,value
2018-07-21T00:03:05.228Z,14.80
2018-07-21T00:05:32.933Z,14.70
2018-07-21T00:13:27.181Z,14.50
2018-07-21T00:15:55.098Z,14.40
2018-07-21T00:18:22.941Z,14.50
2018-07-21T00:20:57.269Z,14.40
2018-07-21T00:23:25.528Z,14.30
2018-07-21T00:28:41.827Z,14.20
2018-07-21T00:31:09.662Z,14.30
2018-07-21T00:33:37.583Z,14.30
2018-07-21T00:36:05.297Z,14.30
2018-07-21T00:38:35.155Z,14.40
2018-07-21T00:44:24.350Z,14.30
2018-07-21T00:50:09.714Z,13.90
2018-07-21T00:52:38.124Z,13.70
2018-07-21T00:55:05.858Z,13.60
2018-07-21T00:57:33.619Z,13.50
2018-07-21T01:00:01.701Z,13.30
2018-07-21T01:02:32.583Z,13.20
2018-07-21T01:05:00.360Z,13.00
2018-07-21T01:07:28.852Z,12.80
2018-07-21T01:09:56.541Z,12.60
2018-07-21T01:12:24.590Z,12.60
2018-07-21T01:14:58.291Z,12.50
2018-07-21T01:21:57.685Z,12.80
2018-07-21T01:32:27.910Z,13.30
2018-07-21T01:36:40.668Z,13.30
2018-07-21T02:00:26.218Z,11.90
2018-07-21T02:03:57.804Z,11.80
2018-07-21T02:09:25.766Z,11.70
2018-07-21T02:12:36.407Z,11.70
2018-07-21T02:15:13.916Z,11.50
2018-07-21T02:18:36.563Z,11.40
2018-07-21T02:21:14.997Z,11.30
2018-07-21T02:23:52.372Z,11.10
2018-07-21T02:26:29.563Z,11.10
2018-07-21T02:28:57.376Z,11.00
2018-07-21T02:31:36.020Z,10.90
2018-07-21T02:34:07.610Z,10.90
2018-07-21T02:39:41.082Z,10.60
2018-07-21T02:42:15.432Z,10.50
2018-07-21T02:47:21.413Z,10.40
2018-07-21T02:49:49.264Z,10.30
2018-07-21T02:52:24.670Z,10.30
2018-07-21T02:54:52.204Z,10.20
2018-07-21T02:57:19.858Z,10.20
2018-07-21T02:59:48.260Z,10.10
2018-07-21T03:02:15.852Z,10.10
2018-07-21T03:04:43.414Z,10.00
2018-07-21T03:07:10.920Z,10.10
2018-07-21T03:09:38.470Z,10.10
2018-07-21T03:12:06.094Z,10.10
2018-07-21T03:14:33.595Z,10.00
2018-07-21T03:17:01.076Z,9.90
2018-07-21T03:19:28.599Z,9.80
2018-07-21T03:21:56.196Z,9.80
2018-07-21T03:24:23.714Z,9.80
2018-07-21T03:26:51.307Z,9.90
2018-07-21T03:29:19.078Z,10.00
2018-07-21T03:31:53.972Z,10.20
2018-07-21T03:35:28.468Z,10.50
2018-07-21T03:38:31.919Z,10.90
2018-07-21T03:45:42.257Z,12.60
2018-07-21T03:48:20.213Z,13.70
2018-07-21T08:01:41.409Z,22.70
2018-07-21T11:48:19.948Z,25.20
2018-07-21T15:17:37.586Z,23.50
2018-07-21T16:16:20.236Z,22.40
2018-07-21T18:44:20.905Z,20.10
2018-07-21T19:02:21.165Z,19.30
2018-07-21T19:07:46.947Z,18.80
2018-07-21T19:17:05.382Z,18.60
2018-07-21T19:19:43.715Z,18.50
2018-07-21T20:32:30.197Z,15.20
2018-07-21T20:35:20.998Z,14.50
2018-07-21T20:38:03.269Z,14.50
2018-07-21T20:40:32.343Z,14.40
2018-07-21T20:48:51.044Z,14.20
2018-07-21T20:51:19.649Z,14.10
2018-07-21T21:01:49.521Z,14.00
2018-07-21T21:07:41.965Z,14.00
2018-07-21T21:12:04.914Z,13.50
2018-07-21T21:29:35.582Z,13.10
2018-07-21T21:32:03.138Z,13.00
2018-07-21T21:34:30.721Z,12.80
2018-07-21T21:36:58.289Z,12.60
2018-07-21T21:39:25.868Z,12.60
2018-07-21T21:41:53.479Z,12.60
2018-07-21T21:44:21.048Z,12.50
2018-07-21T21:46:48.552Z,12.50
2018-07-21T21:49:16.079Z,12.40
2018-07-21T21:51:43.704Z,12.30
2018-07-21T21:54:11.445Z,12.40
2018-07-21T21:56:39.163Z,12.40
2018-07-21T21:59:07.405Z,12.50
2018-07-21T22:04:48.479Z,12.50
2018-07-21T22:07:19.544Z,12.40
2018-07-21T22:09:52.837Z,12.30
2018-07-21T22:12:20.688Z,12.20
2018-07-21T22:14:48.298Z,12.10
2018-07-21T22:17:15.982Z,12.00
2018-07-21T22:19:43.532Z,11.90
2018-07-21T22:22:11.680Z,11.90
2018-07-21T22:28:18.866Z,11.60
2018-07-21T22:30:47.117Z,11.40
2018-07-21T22:33:15.090Z,11.30
2018-07-21T22:35:44.340Z,11.30
2018-07-21T22:38:12.076Z,11.30
2018-07-21T22:40:40.400Z,11.10
2018-07-21T22:43:09.273Z,11.10
2018-07-21T22:45:37.221Z,11.10
2018-07-21T22:48:05.780Z,11.10
2018-07-21T22:50:34.226Z,11.10
2018-07-21T22:53:02.437Z,11.00
2018-07-21T22:58:14.500Z,10.90
2018-07-21T23:00:44.763Z,10.90
2018-07-21T23:03:13.159Z,10.90
2018-07-21T23:05:48.645Z,10.90
2018-07-21T23:08:18.860Z,10.80
2018-07-21T23:10:47.857Z,10.80
2018-07-21T23:13:20.895Z,10.70
2018-07-21T23:15:49.625Z,10.60
2018-07-21T23:18:17.773Z,10.60
2018-07-21T23:21:06.139Z,10.50
2018-07-21T23:24:06.233Z,10.40
2018-07-21T23:26:41.931Z,10.30
2018-07-21T23:29:25.031Z,10.30
2018-07-21T23:32:01.601Z,10.20
2018-07-21T23:34:29.305Z,10.30
2018-07-21T23:36:57.208Z,10.40
2018-07-21T23:39:25.177Z,10.30
2018-07-21T23:41:53.491Z,10.30
2018-07-21T23:46:48.705Z,10.10
2018-07-21T23:49:16.329Z,9.90
2018-07-21T23:51:44.041Z,9.90
2018-07-21T23:54:11.633Z,9.90
2018-07-21T23:56:39.202Z,9.90
